Time;durP1;ratioP1;P1;durP2;ratioP2;P2;SDS_P1;SDS_P2;PMS_P1;PMS_P2;Temp;Humidity;BMP_temperature;BMP_pressure;BME280_temperature;BME280_humidity;BME280_pressure;Samples;Min_cycle;Max_cycle;Signal;HPM_P1;HPM_P2
2023/08/02 00:00:06;;;;;;;7.20;3.20;;;;;;;16.46;100.00;99307.91;5019139;28;20377;-86
2023/08/02 00:02:44;;;;;;;6.50;2.80;;;;;;;16.45;100.00;99295.53;5011186;28;20053;-83
2023/08/02 00:05:17;;;;;;;6.03;3.15;;;;;;;16.35;100.00;99275.09;5033663;28;20057;-83
2023/08/02 00:07:51;;;;;;;7.30;3.38;;;;;;;16.45;100.00;99289.31;5037080;28;20046;-83
2023/08/02 00:10:37;;;;;;;6.00;3.00;;;;;;;16.42;100.00;99289.59;5044613;28;20041;-82
2023/08/02 00:13:08;;;;;;;6.32;3.30;;;;;;;16.36;100.00;99284.81;5047830;28;20041;-84
2023/08/02 00:15:45;;;;;;;4.90;2.70;;;;;;;16.16;100.00;99269.69;5065318;28;20044;-84
2023/08/02 00:18:17;;;;;;;5.53;2.97;;;;;;;16.33;100.00;99291.25;5032677;28;20045;-81
2023/08/02 00:20:47;;;;;;;6.05;3.10;;;;;;;16.33;100.00;99279.72;5034487;28;20049;-83
2023/08/02 00:23:21;;;;;;;5.50;2.80;;;;;;;16.27;100.00;99265.09;5042419;28;20075;-84
2023/08/02 00:25:57;;;;;;;9.18;2.92;;;;;;;16.34;100.00;99274.25;5014826;28;20046;-84
2023/08/02 00:28:27;;;;;;;7.47;2.88;;;;;;;16.42;100.00;99277.06;5030575;28;20038;-84
2023/08/02 00:31:11;;;;;;;;;;;;;;;16.45;100.00;99270.63;5025035;28;20053;-84
2023/08/02 00:33:54;;;;;;;6.50;2.85;;;;;;;16.45;100.00;99276.81;5030148;28;19968;-84
2023/08/02 00:36:23;;;;;;;5.07;3.05;;;;;;;16.25;100.00;99251.00;5031595;28;20065;-84
2023/08/02 00:38:52;;;;;;;5.32;2.95;;;;;;;16.24;100.00;99259.16;5021321;28;20042;-81
2023/08/02 00:41:26;;;;;;;7.35;3.05;;;;;;;16.30;100.00;99275.50;5040293;28;20052;-86
2023/08/02 00:44:02;;;;;;;7.07;3.03;;;;;;;16.33;100.00;99282.41;5042399;28;20041;-82
2023/08/02 00:46:36;;;;;;;7.53;2.95;;;;;;;16.26;100.00;99271.41;5023671;28;20049;-83
2023/08/02 00:49:08;;;;;;;6.80;2.72;;;;;;;16.40;100.00;99291.56;5024757;28;20021;-83
2023/08/02 00:51:37;;;;;;;6.22;2.90;;;;;;;16.46;100.00;99281.19;5030867;28;20045;-84
2023/08/02 00:54:06;;;;;;;10.73;2.97;;;;;;;16.46;100.00;99283.84;5026834;28;20502;-83
2023/08/02 00:56:36;;;;;;;8.93;3.00;;;;;;;16.46;100.00;99270.50;5045230;28;20033;-84
2023/08/02 00:59:07;;;;;;;4.82;3.05;;;;;;;16.28;100.00;99260.59;5049530;28;20041;-82
2023/08/02 01:01:37;;;;;;;8.32;3.22;;;;;;;16.27;100.00;99270.41;5035301;28;20037;-82
2023/08/02 01:04:07;;;;;;;6.35;2.75;;;;;;;16.21;100.00;99241.59;5041047;28;20049;-84
2023/08/02 01:06:39;;;;;;;4.93;2.73;;;;;;;16.26;100.00;99262.53;5034730;28;20041;-83
2023/08/02 01:09:19;;;;;;;4.32;2.90;;;;;;;16.29;100.00;99251.59;5023653;28;20548;-84
2023/08/02 01:11:56;;;;;;;6.73;2.90;;;;;;;16.35;100.00;99251.91;5044020;28;20033;-81
2023/08/02 01:14:28;;;;;;;4.13;2.70;;;;;;;16.36;100.00;99244.75;5035971;28;20480;-80
2023/08/02 01:17:03;;;;;;;6.18;2.60;;;;;;;16.46;100.00;99254.47;5050364;28;20033;-80
2023/08/02 01:19:35;;;;;;;4.10;2.63;;;;;;;16.48;100.00;99251.66;5038468;28;20052;-81
2023/08/02 01:22:11;;;;;;;6.15;2.97;;;;;;;16.44;100.00;99234.19;5053867;28;20036;-82
2023/08/02 01:24:43;;;;;;;5.63;2.42;;;;;;;16.49;100.00;99238.16;5052329;28;20056;-81
2023/08/02 01:27:26;;;;;;;7.97;2.47;;;;;;;16.44;100.00;99229.69;5044722;28;20069;-84
2023/08/02 01:29:59;;;;;;;5.72;2.97;;;;;;;16.46;100.00;99222.38;5029702;28;20052;-83
2023/08/02 01:32:28;;;;;;;5.15;2.40;;;;;;;16.36;100.00;99213.53;5032263;28;20029;-85
2023/08/02 01:34:59;;;;;;;;;;;;;;;16.58;100.00;99235.63;5041787;28;20045;-83
2023/08/02 01:37:29;;;;;;;7.03;2.70;;;;;;;16.63;100.00;99239.63;5027103;28;20039;-81
2023/08/02 01:39:58;;;;;;;6.03;3.23;;;;;;;16.70;100.00;99235.38;5036505;28;20045;-82
2023/08/02 01:42:27;;;;;;;6.50;2.55;;;;;;;16.59;100.00;99222.13;5051125;28;20053;-85
2023/08/02 01:44:57;;;;;;;6.78;2.70;;;;;;;16.65;100.00;99223.44;5030556;28;20045;-85
2023/08/02 01:47:29;;;;;;;7.13;3.05;;;;;;;16.77;100.00;99223.16;5024918;28;20131;-85
2023/08/02 01:50:03;;;;;;;4.97;2.35;;;;;;;16.61;100.00;99205.94;5016205;28;20650;-85
2023/08/02 01:52:34;;;;;;;;;;;;;;;16.66;100.00;99215.28;5034829;28;20049;-84
2023/08/02 01:55:03;;;;;;;7.28;2.58;;;;;;;16.54;100.00;99204.81;5031690;28;19953;-84
2023/08/02 01:57:32;;;;;;;5.78;2.50;;;;;;;16.53;100.00;99214.66;5044526;28;20047;-85
2023/08/02 02:00:01;;;;;;;8.52;2.75;;;;;;;16.42;100.00;99212.09;5034424;28;20094;-84
2023/08/02 02:02:57;;;;;;;5.53;2.60;;;;;;;16.49;100.00;99223.94;5150201;27;21232;-81
2023/08/02 02:05:25;;;;;;;;;;;;;;;16.47;100.00;99208.06;5098272;28;20047;-81
2023/08/02 02:07:53;;;;;;;5.97;2.72;;;;;;;16.42;100.00;99196.91;5104536;28;19972;-80
2023/08/02 02:10:21;;;;;;;5.82;2.78;;;;;;;16.45;100.00;99196.66;5109566;28;20047;-83
2023/08/02 02:12:51;;;;;;;5.57;2.60;;;;;;;16.35;100.00;99161.06;5125059;28;20051;-82
2023/08/02 02:15:19;;;;;;;4.32;2.50;;;;;;;16.39;100.00;99166.97;5124283;28;20047;-81
2023/08/02 02:17:47;;;;;;;4.97;2.15;;;;;;;16.25;100.00;99136.16;5107213;28;20043;-79
2023/08/02 02:20:19;;;;;;;5.65;2.60;;;;;;;16.28;100.00;99133.22;5123392;28;20072;-78
2023/08/02 02:22:50;;;;;;;6.90;2.80;;;;;;;16.50;100.00;99172.19;5123776;28;20043;-82
2023/08/02 02:25:21;;;;;;;6.43;2.67;;;;;;;16.53;100.00;99168.41;5108504;28;20096;-82
2023/08/02 02:27:49;;;;;;;7.35;2.75;;;;;;;16.55;100.00;99172.59;5099704;28;20090;-80
2023/08/02 02:30:17;;;;;;;6.18;2.72;;;;;;;16.44;100.00;99144.19;5101657;28;20075;-81
2023/08/02 02:32:47;;;;;;;6.10;2.30;;;;;;;16.67;100.00;99165.34;5089654;28;20075;-80
2023/08/02 02:35:15;;;;;;;7.43;2.78;;;;;;;16.61;100.00;99166.72;5127834;27;20031;-80
2023/08/02 02:37:44;;;;;;;4.25;2.30;;;;;;;16.57;100.00;99159.94;5133236;28;20031;-81
2023/08/02 02:40:13;;;;;;;7.03;2.40;;;;;;;16.47;100.00;99143.91;5118424;27;20035;-81
2023/08/02 02:42:42;;;;;;;6.65;2.70;;;;;;;16.54;100.00;99156.69;5100351;28;20035;-81
2023/08/02 02:45:11;;;;;;;4.32;2.30;;;;;;;16.47;100.00;99151.09;5115695;28;20050;-82
2023/08/02 02:47:42;;;;;;;4.88;2.50;;;;;;;16.45;100.00;99153.06;5110730;28;20049;-82
2023/08/02 02:50:12;;;;;;;6.03;2.70;;;;;;;16.44;100.00;99143.34;5088821;28;20470;-82
2023/08/02 02:52:47;;;;;;;6.30;2.92;;;;;;;16.35;100.00;99138.84;5110883;28;20081;-80
2023/08/02 02:55:15;;;;;;;6.63;2.67;;;;;;;16.33;100.00;99130.97;5106990;28;20047;-81
2023/08/02 02:57:43;;;;;;;5.38;2.38;;;;;;;16.45;100.00;99145.03;5112580;28;20035;-81
2023/08/02 03:00:12;;;;;;;8.15;2.28;;;;;;;16.52;100.00;99146.19;5109718;28;20051;-83
2023/08/02 03:02:41;;;;;;;8.38;2.50;;;;;;;16.54;100.00;99129.97;5088157;28;20067;-81
2023/08/02 03:05:10;;;;;;;5.00;2.75;;;;;;;16.53;100.00;99126.47;5115650;28;20054;-82
2023/08/02 03:07:40;;;;;;;3.17;2.40;;;;;;;16.56;100.00;99114.66;5126557;28;20057;-81
2023/08/02 03:10:13;;;;;;;7.72;2.42;;;;;;;16.58;100.00;99104.66;5105269;28;20043;-82
2023/08/02 03:12:41;;;;;;;9.10;2.72;;;;;;;16.39;100.00;99086.81;5099282;28;20096;-82
2023/08/02 03:15:10;;;;;;;4.25;2.63;;;;;;;16.46;100.00;99102.16;5120526;28;20047;-81
2023/08/02 03:17:38;;;;;;;4.57;2.22;;;;;;;16.27;100.00;99067.41;5104634;28;20060;-82
2023/08/02 03:20:07;;;;;;;5.82;2.53;;;;;;;16.54;100.00;99100.59;5100755;28;20047;-80
2023/08/02 03:22:35;;;;;;;4.88;2.60;;;;;;;16.59;100.00;99098.34;5099620;28;20028;-82
2023/08/02 03:25:04;;;;;;;4.85;2.63;;;;;;;16.51;100.00;99082.19;5078513;28;20040;-82
2023/08/02 03:27:34;;;;;;;3.55;2.10;;;;;;;16.57;100.00;99087.78;5096474;28;20067;-82
2023/08/02 03:30:06;;;;;;;7.85;2.97;;;;;;;16.68;100.00;99087.69;5089251;28;20468;-81
2023/08/02 03:32:38;;;;;;;6.35;2.40;;;;;;;16.64;100.00;99070.25;5098547;28;20093;-81
2023/08/02 03:35:07;;;;;;;3.97;2.20;;;;;;;16.65;100.00;99066.59;5084759;28;20036;-81
2023/08/02 03:37:36;;;;;;;5.25;2.47;;;;;;;16.59;100.00;99060.94;5071303;28;20054;-82
2023/08/02 03:40:04;;;;;;;4.78;2.42;;;;;;;16.56;100.00;99059.38;5093711;28;20055;-80
2023/08/02 03:42:36;;;;;;;6.28;2.35;;;;;;;16.49;100.00;99032.41;5106553;28;20040;-81
2023/08/02 03:45:04;;;;;;;7.10;2.67;;;;;;;16.64;100.00;99050.69;5105947;28;20034;-80
2023/08/02 03:47:32;;;;;;;4.55;2.42;;;;;;;16.31;100.00;98982.50;5095294;28;20043;-80
2023/08/02 03:50:02;;;;;;;4.90;2.58;;;;;;;16.55;100.00;99036.31;5099485;28;20066;-80
2023/08/02 03:52:30;;;;;;;7.40;2.70;;;;;;;16.66;100.00;99038.03;5081149;28;20032;-80
2023/08/02 03:55:01;;;;;;;5.75;2.53;;;;;;;16.60;100.00;99051.94;5078390;22;20049;-75
2023/08/02 03:57:30;;;;;;;4.72;2.33;;;;;;;16.58;100.00;99032.50;5060598;28;20125;-76
2023/08/02 04:00:00;;;;;;;4.22;2.28;;;;;;;16.52;100.00;99023.25;5051494;28;20505;-74
2023/08/02 04:02:28;;;;;;;4.63;2.40;;;;;;;16.64;100.00;99027.47;5074036;28;20523;-78
2023/08/02 04:04:58;;;;;;;3.97;2.22;;;;;;;16.63;100.00;99019.59;5074102;28;20127;-78
2023/08/02 04:07:29;;;;;;;5.22;2.53;;;;;;;16.56;100.00;99019.28;5058503;28;20040;-75
2023/08/02 04:10:01;;;;;;;10.43;2.50;;;;;;;16.49;100.00;99019.03;5052487;28;20042;-76
2023/08/02 04:12:32;;;;;;;4.97;2.45;;;;;;;16.57;100.00;99015.63;5043347;28;20044;-76
2023/08/02 04:15:03;;;;;;;8.13;2.58;;;;;;;16.59;100.00;99029.69;5056698;28;20057;-74
2023/08/02 04:17:34;;;;;;;3.88;2.40;;;;;;;16.60;100.00;99025.19;5051504;28;20041;-76
2023/08/02 04:20:04;;;;;;;4.20;2.45;;;;;;;16.71;100.00;99033.09;5029043;28;20517;-76
2023/08/02 04:22:32;;;;;;;6.05;2.78;;;;;;;16.66;100.00;99025.50;5057825;28;20501;-76
2023/08/02 04:25:00;;;;;;;6.22;2.60;;;;;;;16.75;100.00;99034.50;5055010;28;20051;-75
2023/08/02 04:27:29;;;;;;;7.28;2.65;;;;;;;16.74;100.00;99036.31;5070791;28;20033;-75
2023/08/02 04:29:58;;;;;;;4.57;2.60;;;;;;;16.70;100.00;99021.53;5062563;28;20047;-77
2023/08/02 04:32:28;;;;;;;5.10;2.40;;;;;;;16.73;100.00;99025.75;5072252;28;20060;-76
2023/08/02 04:34:56;;;;;;;6.53;2.75;;;;;;;16.72;100.00;99018.72;5049514;28;20041;-76
2023/08/02 04:37:25;;;;;;;5.45;2.30;;;;;;;16.75;100.00;99018.44;5047253;28;20122;-75
2023/08/02 04:39:52;;;;;;;4.72;2.55;;;;;;;16.79;100.00;99019.84;5047898;28;20504;-76
2023/08/02 04:42:20;;;;;;;5.85;2.53;;;;;;;16.81;100.00;99017.88;5037321;28;20048;-75
2023/08/02 04:44:49;;;;;;;4.93;2.33;;;;;;;16.92;100.00;98996.31;5054400;28;20044;-75
2023/08/02 04:47:17;;;;;;;3.50;2.15;;;;;;;16.93;100.00;98994.47;5052070;28;20036;-75
2023/08/02 04:49:47;;;;;;;6.53;2.40;;;;;;;16.85;100.00;99003.22;5045931;28;20051;-75
2023/08/02 04:52:15;;;;;;;4.05;2.50;;;;;;;16.94;100.00;98993.50;5071638;28;20393;-76
2023/08/02 04:54:43;;;;;;;5.05;2.25;;;;;;;16.90;100.00;98998.28;5068266;28;20056;-76
2023/08/02 04:57:26;;;;;;;5.45;2.17;;;;;;;17.00;100.00;98990.25;5053561;28;20040;-75
2023/08/02 04:59:54;;;;;;;6.40;2.45;;;;;;;16.95;100.00;98982.66;5050645;28;20045;-74
2023/08/02 05:02:29;;;;;;;7.38;2.38;;;;;;;17.00;100.00;98984.91;5053647;28;20041;-74
2023/08/02 05:04:58;;;;;;;4.68;2.28;;;;;;;16.94;100.00;98980.97;5070556;28;20084;-76
2023/08/02 05:07:32;;;;;;;5.85;2.40;;;;;;;16.95;100.00;98982.66;5048827;28;20049;-75
2023/08/02 05:10:03;;;;;;;6.65;2.33;;;;;;;16.96;100.00;98986.16;5048681;28;21065;-79
2023/08/02 05:12:32;;;;;;;7.90;2.80;;;;;;;16.90;100.00;98976.88;5058891;28;20080;-76
2023/08/02 05:15:00;;;;;;;6.10;2.35;;;;;;;16.97;100.00;98969.97;5076444;28;20048;-75
2023/08/02 05:17:30;;;;;;;4.45;2.30;;;;;;;17.06;100.00;98974.44;5053025;28;20048;-75
2023/08/02 05:20:00;;;;;;;9.30;3.50;;;;;;;17.01;100.00;98971.34;5073922;28;20056;-75
2023/08/02 05:22:31;;;;;;;4.30;2.55;;;;;;;16.95;100.00;98977.31;5073544;28;20474;-77
2023/08/02 05:24:59;;;;;;;4.38;2.30;;;;;;;16.84;100.00;98970.28;5055814;28;20054;-75
2023/08/02 05:27:30;;;;;;;6.85;2.67;;;;;;;16.88;100.00;98962.81;5049096;28;20059;-75
2023/08/02 05:29:59;;;;;;;5.18;2.20;;;;;;;16.96;100.00;98973.63;5036728;28;20524;-75
2023/08/02 05:32:27;;;;;;;4.95;2.58;;;;;;;17.09;100.00;98962.59;5040893;28;20131;-75
2023/08/02 05:34:56;;;;;;;4.45;2.20;;;;;;;17.10;100.00;98964.28;5062217;28;20052;-75
2023/08/02 05:37:28;;;;;;;4.28;2.42;;;;;;;17.11;100.00;98961.47;5056534;28;20052;-77
2023/08/02 05:39:56;;;;;;;5.68;2.42;;;;;;;17.12;100.00;98952.47;5037114;28;20045;-75
2023/08/02 05:42:24;;;;;;;4.93;2.25;;;;;;;17.11;100.00;98953.44;5054993;28;20044;-74
2023/08/02 05:44:52;;;;;;;7.20;2.47;;;;;;;17.09;100.00;98958.09;5039699;28;20055;-75
2023/08/02 05:47:20;;;;;;;5.70;2.72;;;;;;;17.06;100.00;98961.06;5043403;28;20048;-76
2023/08/02 05:49:49;;;;;;;5.20;2.65;;;;;;;17.12;100.00;98957.81;5040094;28;20056;-75
2023/08/02 05:52:17;;;;;;;7.80;2.53;;;;;;;17.08;100.00;98959.09;5068183;28;20481;-75
2023/08/02 05:54:49;;;;;;;5.57;2.70;;;;;;;17.06;100.00;98958.38;5053376;28;20509;-75
2023/08/02 05:57:17;;;;;;;;;;;;;;;17.03;100.00;98950.66;5056821;28;20127;-75
2023/08/02 05:59:44;;;;;;;5.47;3.28;;;;;;;17.03;100.00;98937.28;5035705;28;19924;-76
2023/08/02 06:02:12;;;;;;;7.47;2.63;;;;;;;17.03;100.00;98926.59;5061551;28;20048;-74
2023/08/02 06:04:43;;;;;;;6.72;2.85;;;;;;;17.04;100.00;98930.94;5066587;28;20075;-74
2023/08/02 06:07:13;;;;;;;4.70;2.30;;;;;;;16.99;100.00;98930.56;5048069;28;20048;-75
2023/08/02 06:09:41;;;;;;;6.18;3.10;;;;;;;16.99;100.00;98917.19;5047039;28;20052;-75
2023/08/02 06:12:11;;;;;;;6.10;2.85;;;;;;;16.95;100.00;98907.78;5056133;28;20044;-74
2023/08/02 06:14:40;;;;;;;3.88;2.58;;;;;;;16.90;100.00;98909.19;5048301;28;20044;-75
2023/08/02 06:17:08;;;;;;;5.35;2.70;;;;;;;16.90;100.00;98903.84;5029659;28;20040;-75
2023/08/02 06:19:36;;;;;;;3.92;2.58;;;;;;;16.89;100.00;98886.97;5033990;28;20071;-75
2023/08/02 06:22:04;;;;;;;4.22;3.00;;;;;;;16.74;100.00;98872.41;5052224;28;20044;-75
2023/08/02 06:24:33;;;;;;;5.63;2.90;;;;;;;16.75;100.00;98874.09;5047008;28;20148;-75
2023/08/02 06:27:02;;;;;;;6.65;3.13;;;;;;;16.71;100.00;98876.22;5033942;28;20057;-74
2023/08/02 06:29:33;;;;;;;4.63;3.08;;;;;;;16.79;100.00;98873.66;5037212;28;20048;-76
2023/08/02 06:32:02;;;;;;;6.20;3.35;;;;;;;16.90;100.00;98875.28;5025625;28;20051;-74
2023/08/02 06:34:30;;;;;;;6.03;2.95;;;;;;;16.88;100.00;98869.25;5056015;28;20067;-75
2023/08/02 06:36:59;;;;;;;6.47;2.67;;;;;;;16.88;100.00;98863.91;5061349;28;20084;-74
2023/08/02 06:39:30;;;;;;;6.65;3.00;;;;;;;16.86;100.00;98849.84;5059657;28;20044;-75
2023/08/02 06:42:01;;;;;;;4.50;3.03;;;;;;;16.86;100.00;98847.16;5034804;28;20054;-75
2023/08/02 06:44:30;;;;;;;11.23;3.80;;;;;;;16.74;100.00;98835.84;5038375;28;20102;-76
2023/08/02 06:47:00;;;;;;;8.90;3.30;;;;;;;16.70;100.00;98823.75;5057865;28;20059;-74
2023/08/02 06:49:28;;;;;;;7.10;3.42;;;;;;;16.67;100.00;98809.88;5056856;28;20280;-75
2023/08/02 06:51:55;;;;;;;8.82;3.60;;;;;;;16.66;100.00;98811.69;5050188;28;20381;-74
2023/08/02 06:54:22;;;;;;;4.45;3.10;;;;;;;16.68;100.00;98808.88;5043702;28;20057;-75
2023/08/02 06:56:52;;;;;;;5.32;3.20;;;;;;;16.63;100.00;98816.50;5031665;28;20133;-75
2023/08/02 06:59:22;;;;;;;5.57;3.33;;;;;;;16.57;100.00;98806.34;5030663;28;20498;-76
2023/08/02 07:01:53;;;;;;;7.32;3.45;;;;;;;16.47;100.00;98817.94;5040194;28;20053;-75
2023/08/02 07:04:22;;;;;;;6.03;3.40;;;;;;;16.32;100.00;98803.38;5038595;28;20048;-75
2023/08/02 07:06:52;;;;;;;6.65;3.35;;;;;;;16.42;100.00;98820.19;5036690;28;20053;-76
2023/08/02 07:09:22;;;;;;;7.13;3.08;;;;;;;16.31;100.00;98798.19;5028856;28;20041;-74
2023/08/02 07:11:51;;;;;;;5.82;3.63;;;;;;;16.57;100.00;98817.03;5030256;28;20103;-77
2023/08/02 07:14:19;;;;;;;6.87;3.23;;;;;;;16.59;100.00;98802.53;5031827;28;20045;-77
2023/08/02 07:16:49;;;;;;;5.50;3.35;;;;;;;16.54;100.00;98796.78;5032562;28;20038;-78
2023/08/02 07:19:17;;;;;;;5.78;3.47;;;;;;;16.46;100.00;98786.88;5038933;28;20104;-76
2023/08/02 07:21:47;;;;;;;4.38;3.50;;;;;;;16.44;100.00;98774.63;5047014;28;20117;-75
2023/08/02 07:24:15;;;;;;;7.53;4.23;;;;;;;16.57;100.00;98777.78;5032503;28;20041;-76
2023/08/02 07:26:44;;;;;;;5.72;3.47;;;;;;;16.59;100.00;98788.34;5016244;28;21082;-77
2023/08/02 07:29:12;;;;;;;4.82;3.58;;;;;;;16.58;100.00;98775.97;5033080;28;20505;-76
2023/08/02 07:31:40;;;;;;;5.53;3.30;;;;;;;16.56;100.00;98781.47;5026785;28;20033;-78
2023/08/02 07:34:09;;;;;;;4.75;3.38;;;;;;;16.53;100.00;98781.75;5016240;28;20053;-78
2023/08/02 07:36:39;;;;;;;5.45;3.00;;;;;;;16.48;100.00;98782.22;5017943;28;20108;-77
2023/08/02 07:39:08;;;;;;;5.50;3.03;;;;;;;16.53;100.00;98775.59;5036637;28;20303;-76
2023/08/02 07:41:36;;;;;;;4.93;2.95;;;;;;;16.45;100.00;98765.63;5030879;28;20046;-76
2023/08/02 07:44:04;;;;;;;5.35;3.30;;;;;;;16.57;100.00;98768.94;5036415;28;20042;-75
2023/08/02 07:46:32;;;;;;;4.80;2.95;;;;;;;16.53;100.00;98768.38;5036279;28;20099;-76
2023/08/02 07:49:01;;;;;;;4.78;2.90;;;;;;;16.50;100.00;98760.69;5051351;28;20049;-76
2023/08/02 07:51:29;;;;;;;8.55;3.20;;;;;;;16.57;100.00;98759.09;5042449;28;20104;-77
2023/08/02 07:53:57;;;;;;;4.40;3.20;;;;;;;16.56;100.00;98756.56;5041993;28;20067;-76
2023/08/02 07:56:28;;;;;;;4.00;3.05;;;;;;;16.65;100.00;98750.38;5059122;28;20485;-74
2023/08/02 07:58:58;;;;;;;4.00;3.20;;;;;;;16.68;100.00;98744.72;5048899;28;20058;-75
2023/08/02 08:01:30;;;;;;;6.43;3.25;;;;;;;16.69;100.00;98743.72;5042951;28;20045;-74
2023/08/02 08:03:58;;;;;;;4.95;2.75;;;;;;;16.73;100.00;98743.25;5050905;28;20056;-74
2023/08/02 08:06:27;;;;;;;4.80;3.20;;;;;;;16.71;100.00;98729.22;5032633;28;20179;-76
2023/08/02 08:08:55;;;;;;;3.97;2.97;;;;;;;16.78;100.00;98718.75;5036912;28;20059;-77
2023/08/02 08:11:29;;;;;;;5.63;3.60;;;;;;;16.79;100.00;98721.28;5048017;28;20086;-75
2023/08/02 08:13:57;;;;;;;4.65;2.92;;;;;;;16.92;100.00;98712.88;5050922;28;20064;-75
2023/08/02 08:16:28;;;;;;;4.20;2.85;;;;;;;16.92;100.00;98710.22;5053121;28;20037;-76
2023/08/02 08:18:58;;;;;;;4.70;3.05;;;;;;;16.99;100.00;98705.94;5034833;28;20045;-76
2023/08/02 08:21:26;;;;;;;6.50;2.95;;;;;;;17.03;100.00;98706.44;5047025;28;20049;-77
2023/08/02 08:23:54;;;;;;;3.35;2.88;;;;;;;17.01;100.00;98703.94;5049891;28;20106;-74
2023/08/02 08:26:23;;;;;;;3.90;3.47;;;;;;;16.92;100.00;98702.19;5051781;28;20444;-75
2023/08/02 08:28:53;;;;;;;5.10;3.15;;;;;;;16.83;100.00;98716.50;5049988;28;20628;-75
2023/08/02 08:31:23;;;;;;;4.53;3.20;;;;;;;16.86;100.00;98704.63;5066293;28;20041;-76
2023/08/02 08:33:51;;;;;;;4.18;3.10;;;;;;;16.74;100.00;98685.31;5052670;28;20076;-74
2023/08/02 08:36:20;;;;;;;3.85;3.50;;;;;;;16.82;100.00;98693.41;5048796;28;20046;-76
2023/08/02 08:38:51;;;;;;;3.90;3.05;;;;;;;16.84;100.00;98686.91;5064417;28;20077;-73
2023/08/02 08:41:20;;;;;;;4.05;3.40;;;;;;;16.88;100.00;98678.56;5043937;28;20498;-73
2023/08/02 08:43:48;;;;;;;4.85;3.42;;;;;;;16.92;100.00;98680.81;5028661;28;20041;-75
2023/08/02 08:46:21;;;;;;;4.22;3.30;;;;;;;16.98;100.00;98660.63;5033022;28;20397;-73
2023/08/02 08:48:49;;;;;;;;;;;;;;;16.99;100.00;98655.13;5047057;28;20041;-74
2023/08/02 08:51:21;;;;;;;4.05;2.90;;;;;;;17.04;100.00;98665.34;5045560;28;20321;-76
2023/08/02 08:53:50;;;;;;;8.18;5.60;;;;;;;17.06;100.00;98663.38;5042934;28;20497;-74
2023/08/02 08:56:24;;;;;;;4.38;3.00;;;;;;;16.96;100.00;98659.94;5048481;28;20052;-75
2023/08/02 08:58:55;;;;;;;3.58;3.10;;;;;;;17.04;100.00;98655.50;5051977;28;20496;-75
2023/08/02 09:01:24;;;;;;;5.07;3.55;;;;;;;17.04;100.00;98650.16;5042812;28;20056;-75
2023/08/02 09:03:53;;;;;;;3.80;2.90;;;;;;;17.11;100.00;98645.88;5044185;28;20049;-75
2023/08/02 09:06:22;;;;;;;5.70;3.40;;;;;;;17.10;100.00;98644.19;5045740;28;20104;-74
2023/08/02 09:08:50;;;;;;;6.53;3.60;;;;;;;17.19;100.00;98635.22;5029160;28;20520;-75
2023/08/02 09:11:18;;;;;;;4.15;2.92;;;;;;;17.18;100.00;98632.69;5027724;28;20559;-74
2023/08/02 09:13:46;;;;;;;4.72;3.25;;;;;;;17.11;100.00;98631.66;5042611;28;20425;-76
2023/08/02 09:16:15;;;;;;;4.55;2.90;;;;;;;17.10;100.00;98630.81;5032243;28;20041;-75
2023/08/02 09:18:47;;;;;;;;;;;;;;;17.26;100.00;98615.88;5051241;28;20552;-74
2023/08/02 09:21:16;;;;;;;;;;;;;;;17.27;100.00;98613.03;5051939;28;19978;-75
2023/08/02 09:23:47;;;;;;;5.28;2.95;;;;;;;17.22;100.00;98618.00;5043097;28;19935;-75
2023/08/02 09:26:17;;;;;;;5.00;2.90;;;;;;;17.21;100.00;98608.31;5026662;28;20065;-74
2023/08/02 09:29:03;;;;;;;4.07;3.15;;;;;;;17.14;100.00;98615.31;5046663;28;20132;-74
2023/08/02 09:31:32;;;;;;;9.07;5.93;;;;;;;17.09;100.00;98606.91;5048793;28;20599;-73
2023/08/02 09:34:04;;;;;;;3.38;3.00;;;;;;;17.03;100.00;98611.03;5023888;28;20053;-74
2023/08/02 09:36:34;;;;;;;4.00;2.63;;;;;;;17.01;100.00;98615.69;5050611;28;20045;-73
2023/08/02 09:39:06;;;;;;;3.38;2.95;;;;;;;17.03;100.00;98608.34;5048926;28;20091;-74
2023/08/02 09:41:34;;;;;;;3.15;2.70;;;;;;;17.01;100.00;98606.81;5046803;28;20107;-73
2023/08/02 09:44:25;;;;;;;17.00;3.78;;;;;;;17.04;100.00;98595.81;5039394;28;20048;-73
2023/08/02 09:46:53;;;;;;;3.50;2.75;;;;;;;17.06;100.00;98588.47;5054903;28;20403;-73
2023/08/02 09:49:23;;;;;;;3.95;2.90;;;;;;;17.06;100.00;98567.94;5049685;28;20191;-73
2023/08/02 09:51:53;;;;;;;4.03;2.63;;;;;;;17.09;100.00;98562.28;5045418;28;20051;-73
2023/08/02 09:54:21;;;;;;;3.58;2.40;;;;;;;17.10;100.00;98566.63;5051114;28;20495;-75
2023/08/02 09:56:50;;;;;;;3.08;2.60;;;;;;;17.13;100.00;98565.47;5047394;28;20045;-75
2023/08/02 09:59:19;;;;;;;3.10;2.40;;;;;;;17.11;100.00;98557.59;5049870;28;20726;-74
2023/08/02 10:01:49;;;;;;;3.45;2.45;;;;;;;17.12;100.00;98553.94;5067501;28;20067;-76
2023/08/02 10:04:20;;;;;;;5.15;3.28;;;;;;;17.08;100.00;98552.56;5064791;28;20040;-74
2023/08/02 10:06:57;;;;;;;3.67;2.88;;;;;;;17.13;100.00;98547.59;5067334;28;20059;-74
2023/08/02 10:09:29;;;;;;;4.03;3.28;;;;;;;17.19;100.00;98544.28;5068085;28;20095;-74
2023/08/02 10:12:02;;;;;;;4.10;2.92;;;;;;;17.20;100.00;98529.06;5049419;28;20074;-75
2023/08/02 10:14:31;;;;;;;3.97;2.90;;;;;;;17.23;100.00;98530.59;5043702;28;20053;-73
2023/08/02 10:17:02;;;;;;;2.90;2.53;;;;;;;17.23;100.00;98519.88;5052130;28;20051;-74
2023/08/02 10:19:32;;;;;;;2.58;2.25;;;;;;;17.31;100.00;98503.88;5068947;28;20069;-74
2023/08/02 10:22:04;;;;;;;3.13;2.60;;;;;;;17.25;100.00;98496.50;5078076;28;20055;-74
2023/08/02 10:24:35;;;;;;;4.05;2.80;;;;;;;17.33;100.00;98510.72;5044590;28;20063;-73
2023/08/02 10:27:07;;;;;;;6.10;3.53;;;;;;;17.34;100.00;98501.72;5062862;28;20048;-73
2023/08/02 10:29:35;;;;;;;;;;;;;;;17.42;100.00;98495.56;5074454;28;20048;-75
2023/08/02 10:32:13;;;;;;;5.03;2.88;;;;;;;17.44;100.00;98490.91;5063952;28;19931;-74
2023/08/02 10:34:47;;;;;;;4.47;2.65;;;;;;;17.50;100.00;98474.16;5070458;28;20037;-75
2023/08/02 10:37:20;;;;;;;3.60;2.95;;;;;;;17.53;100.00;98480.03;5053702;28;20065;-74
2023/08/02 10:39:54;;;;;;;4.30;2.70;;;;;;;17.59;100.00;98478.56;5053449;28;20059;-76
2023/08/02 10:42:26;;;;;;;5.75;3.28;;;;;;;17.65;100.00;98480.59;5062596;28;20172;-74
2023/08/02 10:45:12;;;;;;;3.35;2.90;;;;;;;17.76;100.00;98464.25;5048116;28;20063;-74
2023/08/02 10:47:45;;;;;;;3.15;2.72;;;;;;;17.83;100.00;98459.91;5057543;28;20044;-73
2023/08/02 10:50:43;;;;;;;5.35;3.58;;;;;;;17.84;100.00;98464.25;5071866;28;20044;-74
2023/08/02 10:53:13;;;;;;;5.07;3.30;;;;;;;17.86;100.00;98448.88;5047471;28;20564;-75
2023/08/02 10:55:56;;;;;;;;;;;;;;;18.01;100.00;98453.56;5041291;28;20045;-74
2023/08/02 10:58:24;;;;;;;5.20;3.17;;;;;;;18.00;100.00;98451.91;5062039;28;19945;-74
2023/08/02 11:01:11;;;;;;;3.83;2.95;;;;;;;17.91;100.00;98439.50;5054424;28;20048;-73
2023/08/02 11:03:41;;;;;;;3.58;2.80;;;;;;;17.95;100.00;98436.31;5045402;28;20041;-75
2023/08/02 11:06:23;;;;;;;4.43;3.45;;;;;;;17.99;100.00;98443.03;5074012;28;20555;-74
2023/08/02 11:08:53;;;;;;;4.90;3.17;;;;;;;17.85;100.00;98425.78;5046442;28;20053;-75
2023/08/02 11:11:29;;;;;;;7.22;3.50;;;;;;;17.96;100.00;98434.47;5048240;28;20043;-74
2023/08/02 11:13:57;;;;;;;5.78;3.95;;;;;;;17.86;100.00;98411.38;5060102;28;20098;-74
2023/08/02 11:16:25;;;;;;;4.95;3.85;;;;;;;18.02;100.00;98425.78;5061378;28;20098;-74
2023/08/02 11:18:54;;;;;;;4.93;3.05;;;;;;;18.09;100.00;98426.81;5084641;28;20108;-74
2023/08/02 11:21:23;;;;;;;3.83;2.85;;;;;;;18.14;100.00;98411.88;5056769;28;20072;-75
2023/08/02 11:23:50;;;;;;;5.63;3.25;;;;;;;18.26;100.00;98406.22;5049474;28;20040;-74
2023/08/02 11:26:22;;;;;;;4.53;3.28;;;;;;;18.33;100.00;98410.72;5074005;28;20049;-74
2023/08/02 11:28:52;;;;;;;7.10;3.70;;;;;;;18.40;100.00;98411.72;5061294;28;20053;-75
2023/08/02 11:31:25;;;;;;;4.13;3.00;;;;;;;18.41;100.00;98405.34;5057294;28;20048;-75
2023/08/02 11:33:54;;;;;;;6.10;3.22;;;;;;;18.39;100.00;98401.16;5070722;28;20132;-74
2023/08/02 11:36:23;;;;;;;3.35;2.50;;;;;;;18.29;100.00;98385.25;5058505;28;20033;-76
2023/08/02 11:38:51;;;;;;;3.65;2.53;;;;;;;18.34;100.00;98387.44;5060495;28;20053;-74
2023/08/02 11:41:20;;;;;;;4.93;3.05;;;;;;;18.35;100.00;98397.97;5050491;28;20513;-74